sensor_id;sensor_type;location;lat;lon;timestamp;temperature;humidity
20658;DHT22;10488;50.846;4.078;2023-11-21T00:02:04;9.40;99.90
20658;DHT22;10488;50.846;4.078;2023-11-21T00:04:30;9.30;99.90
20658;DHT22;10488;50.846;4.078;2023-11-21T00:06:56;9.30;99.90
20658;DHT22;10488;50.846;4.078;2023-11-21T00:09:21;9.30;99.90
20658;DHT22;10488;50.846;4.078;2023-11-21T00:11:47;9.10;99.90
20658;DHT22;10488;50.846;4.078;2023-11-21T00:14:13;9.10;99.90
20658;DHT22;10488;50.846;4.078;2023-11-21T00:16:41;9.00;99.90
20658;DHT22;10488;50.846;4.078;2023-11-21T00:19:06;9.00;99.90
20658;DHT22;10488;50.846;4.078;2023-11-21T00:21:32;8.90;99.90
20658;DHT22;10488;50.846;4.078;2023-11-21T00:23:58;8.90;99.90
20658;DHT22;10488;50.846;4.078;2023-11-21T00:26:23;8.80;99.90
20658;DHT22;10488;50.846;4.078;2023-11-21T00:28:50;8.80;99.90
20658;DHT22;10488;50.846;4.078;2023-11-21T00:31:17;8.70;99.90
20658;DHT22;10488;50.846;4.078;2023-11-21T00:33:42;8.70;99.90
20658;DHT22;10488;50.846;4.078;2023-11-21T00:36:09;8.70;99.90
20658;DHT22;10488;50.846;4.078;2023-11-21T00:38:35;8.70;99.90
20658;DHT22;10488;50.846;4.078;2023-11-21T00:41:01;8.60;99.90
20658;DHT22;10488;50.846;4.078;2023-11-21T00:43:28;8.70;99.90
20658;DHT22;10488;50.846;4.078;2023-11-21T00:45:54;8.70;99.90
20658;DHT22;10488;50.846;4.078;2023-11-21T00:48:19;8.80;99.90
20658;DHT22;10488;50.846;4.078;2023-11-21T00:50:45;8.90;99.90
20658;DHT22;10488;50.846;4.078;2023-11-21T00:53:11;8.90;99.90
20658;DHT22;10488;50.846;4.078;2023-11-21T00:55:37;9.00;99.90
20658;DHT22;10488;50.846;4.078;2023-11-21T00:58:05;9.10;99.90
20658;DHT22;10488;50.846;4.078;2023-11-21T01:00:33;9.00;99.90
20658;DHT22;10488;50.846;4.078;2023-11-21T01:02:59;9.20;99.90
20658;DHT22;10488;50.846;4.078;2023-11-21T01:05:25;9.20;99.90
20658;DHT22;10488;50.846;4.078;2023-11-21T01:07:50;9.20;99.90
20658;DHT22;10488;50.846;4.078;2023-11-21T01:10:16;9.20;99.90
20658;DHT22;10488;50.846;4.078;2023-11-21T01:12:43;9.30;99.90
20658;DHT22;10488;50.846;4.078;2023-11-21T01:15:09;9.40;99.90
20658;DHT22;10488;50.846;4.078;2023-11-21T01:17:37;9.40;99.90
20658;DHT22;10488;50.846;4.078;2023-11-21T01:20:04;9.50;99.90
20658;DHT22;10488;50.846;4.078;2023-11-21T01:22:36;9.50;99.90
20658;DHT22;10488;50.846;4.078;2023-11-21T01:25:02;9.50;99.90
20658;DHT22;10488;50.846;4.078;2023-11-21T01:27:29;9.60;99.90
20658;DHT22;10488;50.846;4.078;2023-11-21T01:29:55;9.60;99.90
20658;DHT22;10488;50.846;4.078;2023-11-21T01:32:21;9.60;99.90
20658;DHT22;10488;50.846;4.078;2023-11-21T01:34:48;9.60;99.90
20658;DHT22;10488;50.846;4.078;2023-11-21T01:37:13;9.70;99.90
20658;DHT22;10488;50.846;4.078;2023-11-21T01:39:39;9.70;99.90
20658;DHT22;10488;50.846;4.078;2023-11-21T01:42:05;9.70;99.90
20658;DHT22;10488;50.846;4.078;2023-11-21T01:44:31;9.80;99.90
20658;DHT22;10488;50.846;4.078;2023-11-21T01:46:57;9.80;99.90
20658;DHT22;10488;50.846;4.078;2023-11-21T01:49:23;9.80;99.90
20658;DHT22;10488;50.846;4.078;2023-11-21T01:51:49;9.90;99.90
20658;DHT22;10488;50.846;4.078;2023-11-21T01:54:17;10.00;99.90
20658;DHT22;10488;50.846;4.078;2023-11-21T01:56:46;9.80;99.90
20658;DHT22;10488;50.846;4.078;2023-11-21T01:59:15;9.80;99.90
20658;DHT22;10488;50.846;4.078;2023-11-21T02:01:43;9.80;99.90
20658;DHT22;10488;50.846;4.078;2023-11-21T02:04:09;9.80;99.90
20658;DHT22;10488;50.846;4.078;2023-11-21T02:06:35;9.80;99.90
20658;DHT22;10488;50.846;4.078;2023-11-21T02:09:01;9.80;99.90
20658;DHT22;10488;50.846;4.078;2023-11-21T02:11:26;9.80;99.90
20658;DHT22;10488;50.846;4.078;2023-11-21T02:13:53;9.90;99.90
20658;DHT22;10488;50.846;4.078;2023-11-21T02:16:19;9.90;99.90
20658;DHT22;10488;50.846;4.078;2023-11-21T02:18:47;10.00;99.90
20658;DHT22;10488;50.846;4.078;2023-11-21T02:21:14;10.00;99.90
20658;DHT22;10488;50.846;4.078;2023-11-21T02:23:40;10.00;99.90
20658;DHT22;10488;50.846;4.078;2023-11-21T02:26:10;10.00;99.90
20658;DHT22;10488;50.846;4.078;2023-11-21T02:28:36;10.00;99.90
20658;DHT22;10488;50.846;4.078;2023-11-21T02:31:02;10.00;99.90
20658;DHT22;10488;50.846;4.078;2023-11-21T02:33:30;10.10;99.90
20658;DHT22;10488;50.846;4.078;2023-11-21T02:35:59;10.10;99.90
20658;DHT22;10488;50.846;4.078;2023-11-21T02:38:25;10.20;99.90
20658;DHT22;10488;50.846;4.078;2023-11-21T02:40:51;10.10;99.90
20658;DHT22;10488;50.846;4.078;2023-11-21T02:43:17;10.10;99.90
20658;DHT22;10488;50.846;4.078;2023-11-21T02:45:42;10.10;99.90
20658;DHT22;10488;50.846;4.078;2023-11-21T02:48:08;10.20;99.90
20658;DHT22;10488;50.846;4.078;2023-11-21T02:50:34;10.20;99.90
20658;DHT22;10488;50.846;4.078;2023-11-21T02:53:01;10.20;99.90
20658;DHT22;10488;50.846;4.078;2023-11-21T02:55:27;10.10;99.90
20658;DHT22;10488;50.846;4.078;2023-11-21T02:57:53;10.10;99.90
20658;DHT22;10488;50.846;4.078;2023-11-21T03:00:18;10.20;99.90
20658;DHT22;10488;50.846;4.078;2023-11-21T03:02:45;10.20;99.90
20658;DHT22;10488;50.846;4.078;2023-11-21T03:05:10;10.20;99.90
20658;DHT22;10488;50.846;4.078;2023-11-21T03:07:37;10.20;99.90
20658;DHT22;10488;50.846;4.078;2023-11-21T03:10:03;10.10;99.90
20658;DHT22;10488;50.846;4.078;2023-11-21T03:12:30;10.20;99.90
20658;DHT22;10488;50.846;4.078;2023-11-21T03:14:56;10.10;99.90
20658;DHT22;10488;50.846;4.078;2023-11-21T03:17:21;10.10;99.90
20658;DHT22;10488;50.846;4.078;2023-11-21T03:19:47;10.10;99.90
20658;DHT22;10488;50.846;4.078;2023-11-21T03:22:12;10.10;99.90
20658;DHT22;10488;50.846;4.078;2023-11-21T03:24:38;10.10;99.90
20658;DHT22;10488;50.846;4.078;2023-11-21T03:27:04;10.10;99.90
20658;DHT22;10488;50.846;4.078;2023-11-21T03:29:30;10.10;99.90
20658;DHT22;10488;50.846;4.078;2023-11-21T03:31:56;10.20;99.90
20658;DHT22;10488;50.846;4.078;2023-11-21T03:34:26;10.20;99.90
20658;DHT22;10488;50.846;4.078;2023-11-21T03:36:52;10.10;99.90
20658;DHT22;10488;50.846;4.078;2023-11-21T03:39:19;10.20;99.90
20658;DHT22;10488;50.846;4.078;2023-11-21T03:41:45;10.10;99.90
20658;DHT22;10488;50.846;4.078;2023-11-21T03:44:11;10.10;99.90
20658;DHT22;10488;50.846;4.078;2023-11-21T03:46:37;10.10;99.90
20658;DHT22;10488;50.846;4.078;2023-11-21T03:49:02;10.10;99.90
20658;DHT22;10488;50.846;4.078;2023-11-21T03:51:28;10.10;99.90
20658;DHT22;10488;50.846;4.078;2023-11-21T03:53:53;10.10;99.90
20658;DHT22;10488;50.846;4.078;2023-11-21T03:56:19;10.10;99.90
20658;DHT22;10488;50.846;4.078;2023-11-21T03:58:48;10.20;99.90
20658;DHT22;10488;50.846;4.078;2023-11-21T04:01:24;10.10;99.90
20658;DHT22;10488;50.846;4.078;2023-11-21T04:03:50;10.10;99.90
20658;DHT22;10488;50.846;4.078;2023-11-21T04:06:17;10.10;99.90
20658;DHT22;10488;50.846;4.078;2023-11-21T04:08:44;10.10;99.90
20658;DHT22;10488;50.846;4.078;2023-11-21T04:11:10;10.10;99.90
20658;DHT22;10488;50.846;4.078;2023-11-21T04:13:41;10.10;99.90
20658;DHT22;10488;50.846;4.078;2023-11-21T04:16:08;10.10;99.90
20658;DHT22;10488;50.846;4.078;2023-11-21T04:18:36;10.10;99.90
20658;DHT22;10488;50.846;4.078;2023-11-21T04:21:02;10.10;99.90
20658;DHT22;10488;50.846;4.078;2023-11-21T04:23:29;10.20;99.90
20658;DHT22;10488;50.846;4.078;2023-11-21T04:25:55;10.20;99.90
20658;DHT22;10488;50.846;4.078;2023-11-21T04:28:23;10.30;99.90
20658;DHT22;10488;50.846;4.078;2023-11-21T04:30:49;10.20;99.90
20658;DHT22;10488;50.846;4.078;2023-11-21T04:33:15;10.30;99.90
20658;DHT22;10488;50.846;4.078;2023-11-21T04:35:41;10.20;99.90
20658;DHT22;10488;50.846;4.078;2023-11-21T04:38:07;10.20;99.90
20658;DHT22;10488;50.846;4.078;2023-11-21T04:40:33;10.10;99.90
20658;DHT22;10488;50.846;4.078;2023-11-21T04:42:59;10.10;99.90
20658;DHT22;10488;50.846;4.078;2023-11-21T04:45:24;10.20;99.90
20658;DHT22;10488;50.846;4.078;2023-11-21T04:47:50;10.10;99.90
20658;DHT22;10488;50.846;4.078;2023-11-21T04:50:17;10.20;99.90
20658;DHT22;10488;50.846;4.078;2023-11-21T04:52:43;10.20;99.90
20658;DHT22;10488;50.846;4.078;2023-11-21T04:55:08;10.20;99.90
20658;DHT22;10488;50.846;4.078;2023-11-21T04:57:36;10.20;99.90
20658;DHT22;10488;50.846;4.078;2023-11-21T05:00:02;10.30;99.90
20658;DHT22;10488;50.846;4.078;2023-11-21T05:02:34;10.40;99.90
20658;DHT22;10488;50.846;4.078;2023-11-21T05:05:00;10.30;99.90
20658;DHT22;10488;50.846;4.078;2023-11-21T05:07:26;10.30;99.90
20658;DHT22;10488;50.846;4.078;2023-11-21T05:09:55;10.30;99.90
20658;DHT22;10488;50.846;4.078;2023-11-21T05:12:24;10.30;99.90
20658;DHT22;10488;50.846;4.078;2023-11-21T05:14:50;10.30;99.90
20658;DHT22;10488;50.846;4.078;2023-11-21T05:17:16;10.30;99.90
20658;DHT22;10488;50.846;4.078;2023-11-21T05:19:42;10.40;99.90
20658;DHT22;10488;50.846;4.078;2023-11-21T05:22:08;10.40;99.90
20658;DHT22;10488;50.846;4.078;2023-11-21T05:24:34;10.30;99.90
20658;DHT22;10488;50.846;4.078;2023-11-21T05:27:00;10.30;99.90
20658;DHT22;10488;50.846;4.078;2023-11-21T05:29:26;10.20;99.90
20658;DHT22;10488;50.846;4.078;2023-11-21T05:31:52;10.20;99.90
20658;DHT22;10488;50.846;4.078;2023-11-21T05:34:18;10.20;99.90
20658;DHT22;10488;50.846;4.078;2023-11-21T05:36:46;10.30;99.90
20658;DHT22;10488;50.846;4.078;2023-11-21T05:39:11;10.30;99.90
20658;DHT22;10488;50.846;4.078;2023-11-21T05:41:37;10.40;99.90
20658;DHT22;10488;50.846;4.078;2023-11-21T05:44:03;10.50;99.90
20658;DHT22;10488;50.846;4.078;2023-11-21T05:46:29;10.40;99.90
20658;DHT22;10488;50.846;4.078;2023-11-21T05:48:54;10.30;99.90
20658;DHT22;10488;50.846;4.078;2023-11-21T05:51:20;10.30;99.90
20658;DHT22;10488;50.846;4.078;2023-11-21T05:53:45;10.30;99.90
20658;DHT22;10488;50.846;4.078;2023-11-21T05:56:12;10.20;99.90
20658;DHT22;10488;50.846;4.078;2023-11-21T05:58:39;10.20;99.90
20658;DHT22;10488;50.846;4.078;2023-11-21T06:01:05;10.10;99.90
20658;DHT22;10488;50.846;4.078;2023-11-21T06:03:34;10.20;99.90
20658;DHT22;10488;50.846;4.078;2023-11-21T06:06:00;10.20;99.90
20658;DHT22;10488;50.846;4.078;2023-11-21T06:08:26;10.30;99.90
20658;DHT22;10488;50.846;4.078;2023-11-21T06:10:52;10.40;99.90
20658;DHT22;10488;50.846;4.078;2023-11-21T06:13:17;10.30;99.90
20658;DHT22;10488;50.846;4.078;2023-11-21T06:15:50;10.40;99.90
20658;DHT22;10488;50.846;4.078;2023-11-21T06:18:15;10.40;99.90
20658;DHT22;10488;50.846;4.078;2023-11-21T06:20:41;10.40;99.90
20658;DHT22;10488;50.846;4.078;2023-11-21T06:23:07;10.30;99.90
20658;DHT22;10488;50.846;4.078;2023-11-21T06:25:32;10.40;99.90
20658;DHT22;10488;50.846;4.078;2023-11-21T06:28:02;10.40;99.90
20658;DHT22;10488;50.846;4.078;2023-11-21T06:30:28;10.40;99.90
20658;DHT22;10488;50.846;4.078;2023-11-21T06:32:54;10.40;99.90
20658;DHT22;10488;50.846;4.078;2023-11-21T06:35:20;10.40;99.90
20658;DHT22;10488;50.846;4.078;2023-11-21T06:37:48;10.40;99.90
20658;DHT22;10488;50.846;4.078;2023-11-21T06:40:14;10.30;99.90
20658;DHT22;10488;50.846;4.078;2023-11-21T06:42:40;10.40;99.90
20658;DHT22;10488;50.846;4.078;2023-11-21T06:45:07;10.50;99.90
20658;DHT22;10488;50.846;4.078;2023-11-21T06:47:33;10.50;99.90
20658;DHT22;10488;50.846;4.078;2023-11-21T06:49:59;10.60;99.90
20658;DHT22;10488;50.846;4.078;2023-11-21T06:52:25;10.50;99.90
20658;DHT22;10488;50.846;4.078;2023-11-21T06:54:51;10.40;99.90
20658;DHT22;10488;50.846;4.078;2023-11-21T06:57:16;10.40;99.90
20658;DHT22;10488;50.846;4.078;2023-11-21T06:59:43;10.50;99.90
20658;DHT22;10488;50.846;4.078;2023-11-21T07:02:08;10.60;99.90
20658;DHT22;10488;50.846;4.078;2023-11-21T07:04:35;10.60;99.90
20658;DHT22;10488;50.846;4.078;2023-11-21T07:07:02;10.60;99.90
20658;DHT22;10488;50.846;4.078;2023-11-21T07:09:28;10.60;99.90
20658;DHT22;10488;50.846;4.078;2023-11-21T07:11:55;10.60;99.90
20658;DHT22;10488;50.846;4.078;2023-11-21T07:14:21;10.50;99.90
20658;DHT22;10488;50.846;4.078;2023-11-21T07:16:46;10.60;99.90
20658;DHT22;10488;50.846;4.078;2023-11-21T07:19:12;10.70;99.90
20658;DHT22;10488;50.846;4.078;2023-11-21T07:21:39;10.60;99.90
20658;DHT22;10488;50.846;4.078;2023-11-21T07:24:06;10.50;99.90
20658;DHT22;10488;50.846;4.078;2023-11-21T07:26:33;10.50;99.90
20658;DHT22;10488;50.846;4.078;2023-11-21T07:29:00;10.50;99.90
20658;DHT22;10488;50.846;4.078;2023-11-21T07:31:26;10.70;99.90
20658;DHT22;10488;50.846;4.078;2023-11-21T07:33:52;10.50;99.90
20658;DHT22;10488;50.846;4.078;2023-11-21T07:36:19;10.50;99.90
20658;DHT22;10488;50.846;4.078;2023-11-21T07:38:46;10.40;99.90
20658;DHT22;10488;50.846;4.078;2023-11-21T07:41:11;10.40;99.90
20658;DHT22;10488;50.846;4.078;2023-11-21T07:43:44;10.30;99.90
20658;DHT22;10488;50.846;4.078;2023-11-21T07:46:11;10.50;99.90
20658;DHT22;10488;50.846;4.078;2023-11-21T07:48:38;10.50;99.90
20658;DHT22;10488;50.846;4.078;2023-11-21T07:51:04;10.40;99.90
20658;DHT22;10488;50.846;4.078;2023-11-21T07:53:30;10.30;99.90
20658;DHT22;10488;50.846;4.078;2023-11-21T07:56:03;10.50;99.90
20658;DHT22;10488;50.846;4.078;2023-11-21T07:58:29;10.70;99.90
20658;DHT22;10488;50.846;4.078;2023-11-21T08:00:56;10.90;99.90
20658;DHT22;10488;50.846;4.078;2023-11-21T08:03:22;11.10;99.90
20658;DHT22;10488;50.846;4.078;2023-11-21T08:05:47;11.20;99.90
20658;DHT22;10488;50.846;4.078;2023-11-21T08:08:13;11.10;99.90
20658;DHT22;10488;50.846;4.078;2023-11-21T08:10:38;11.20;99.90
20658;DHT22;10488;50.846;4.078;2023-11-21T08:13:05;11.40;99.90
20658;DHT22;10488;50.846;4.078;2023-11-21T08:15:30;11.40;99.90
20658;DHT22;10488;50.846;4.078;2023-11-21T08:17:59;11.30;99.90
20658;DHT22;10488;50.846;4.078;2023-11-21T08:20:25;11.20;99.90
20658;DHT22;10488;50.846;4.078;2023-11-21T08:22:51;11.00;99.90
20658;DHT22;10488;50.846;4.078;2023-11-21T08:25:18;11.00;99.90
20658;DHT22;10488;50.846;4.078;2023-11-21T08:27:45;11.20;99.90
20658;DHT22;10488;50.846;4.078;2023-11-21T08:30:12;11.40;99.90
20658;DHT22;10488;50.846;4.078;2023-11-21T08:32:39;11.50;99.90
20658;DHT22;10488;50.846;4.078;2023-11-21T08:35:07;11.60;99.90
20658;DHT22;10488;50.846;4.078;2023-11-21T08:37:33;11.70;99.90
20658;DHT22;10488;50.846;4.078;2023-11-21T08:40:06;11.50;99.90
20658;DHT22;10488;50.846;4.078;2023-11-21T08:42:42;11.50;99.90
20658;DHT22;10488;50.846;4.078;2023-11-21T08:45:08;11.60;99.90
20658;DHT22;10488;50.846;4.078;2023-11-21T08:47:35;11.70;99.90
20658;DHT22;10488;50.846;4.078;2023-11-21T08:50:02;11.80;99.90
20658;DHT22;10488;50.846;4.078;2023-11-21T08:52:28;11.50;99.90
20658;DHT22;10488;50.846;4.078;2023-11-21T08:54:53;11.50;99.90
20658;DHT22;10488;50.846;4.078;2023-11-21T08:57:22;11.60;99.90
20658;DHT22;10488;50.846;4.078;2023-11-21T08:59:48;11.60;99.90
20658;DHT22;10488;50.846;4.078;2023-11-21T09:02:15;11.60;99.90
20658;DHT22;10488;50.846;4.078;2023-11-21T09:04:41;11.60;99.90
20658;DHT22;10488;50.846;4.078;2023-11-21T09:07:06;11.70;99.90
20658;DHT22;10488;50.846;4.078;2023-11-21T09:09:32;11.50;99.90
20658;DHT22;10488;50.846;4.078;2023-11-21T09:11:57;11.60;99.90
20658;DHT22;10488;50.846;4.078;2023-11-21T09:14:26;11.70;99.90
20658;DHT22;10488;50.846;4.078;2023-11-21T09:16:51;11.80;99.90
20658;DHT22;10488;50.846;4.078;2023-11-21T09:19:17;11.90;99.90
20658;DHT22;10488;50.846;4.078;2023-11-21T09:21:42;12.00;99.90
20658;DHT22;10488;50.846;4.078;2023-11-21T09:24:08;11.90;99.90
20658;DHT22;10488;50.846;4.078;2023-11-21T09:26:34;11.80;99.90
20658;DHT22;10488;50.846;4.078;2023-11-21T09:29:00;11.70;99.90
20658;DHT22;10488;50.846;4.078;2023-11-21T09:31:27;11.40;99.90
20658;DHT22;10488;50.846;4.078;2023-11-21T09:33:54;11.50;99.90
20658;DHT22;10488;50.846;4.078;2023-11-21T09:36:20;11.40;99.90
20658;DHT22;10488;50.846;4.078;2023-11-21T09:38:49;11.60;99.90
20658;DHT22;10488;50.846;4.078;2023-11-21T09:41:37;11.60;99.90
20658;DHT22;10488;50.846;4.078;2023-11-21T09:44:08;11.80;99.90
20658;DHT22;10488;50.846;4.078;2023-11-21T09:46:37;11.90;99.90
20658;DHT22;10488;50.846;4.078;2023-11-21T09:49:06;11.90;99.90
20658;DHT22;10488;50.846;4.078;2023-11-21T09:51:39;11.70;99.90
20658;DHT22;10488;50.846;4.078;2023-11-21T09:54:07;11.80;99.90
20658;DHT22;10488;50.846;4.078;2023-11-21T09:56:34;11.60;99.90
20658;DHT22;10488;50.846;4.078;2023-11-21T09:59:01;11.50;99.90
20658;DHT22;10488;50.846;4.078;2023-11-21T10:01:32;11.20;99.90
20658;DHT22;10488;50.846;4.078;2023-11-21T10:03:58;11.40;99.90
20658;DHT22;10488;50.846;4.078;2023-11-21T10:06:26;11.50;99.90
20658;DHT22;10488;50.846;4.078;2023-11-21T10:08:56;11.40;99.90
20658;DHT22;10488;50.846;4.078;2023-11-21T10:11:25;11.40;99.90
20658;DHT22;10488;50.846;4.078;2023-11-21T10:13:55;11.50;99.90
20658;DHT22;10488;50.846;4.078;2023-11-21T10:16:26;11.50;99.90
20658;DHT22;10488;50.846;4.078;2023-11-21T10:18:53;11.60;99.90
20658;DHT22;10488;50.846;4.078;2023-11-21T10:21:21;11.60;99.90
20658;DHT22;10488;50.846;4.078;2023-11-21T10:23:47;11.40;99.90
20658;DHT22;10488;50.846;4.078;2023-11-21T10:26:13;11.60;99.90
20658;DHT22;10488;50.846;4.078;2023-11-21T10:28:54;11.80;99.90
20658;DHT22;10488;50.846;4.078;2023-11-21T10:31:21;11.90;99.90
20658;DHT22;10488;50.846;4.078;2023-11-21T10:33:46;11.90;99.90
20658;DHT22;10488;50.846;4.078;2023-11-21T10:36:12;12.10;99.90
20658;DHT22;10488;50.846;4.078;2023-11-21T10:38:42;12.20;99.90
20658;DHT22;10488;50.846;4.078;2023-11-21T10:41:11;12.40;99.90
20658;DHT22;10488;50.846;4.078;2023-11-21T10:43:40;11.90;99.90
20658;DHT22;10488;50.846;4.078;2023-11-21T10:46:08;11.80;99.90
20658;DHT22;10488;50.846;4.078;2023-11-21T10:48:34;11.70;99.90
20658;DHT22;10488;50.846;4.078;2023-11-21T10:51:07;11.60;99.90
20658;DHT22;10488;50.846;4.078;2023-11-21T10:53:39;11.90;99.90
20658;DHT22;10488;50.846;4.078;2023-11-21T10:56:09;12.20;99.90
20658;DHT22;10488;50.846;4.078;2023-11-21T10:58:43;12.20;99.90
20658;DHT22;10488;50.846;4.078;2023-11-21T11:01:09;12.30;99.90
20658;DHT22;10488;50.846;4.078;2023-11-21T11:03:37;12.20;99.90
20658;DHT22;10488;50.846;4.078;2023-11-21T11:06:05;12.40;99.90
20658;DHT22;10488;50.846;4.078;2023-11-21T11:08:34;12.70;99.90
20658;DHT22;10488;50.846;4.078;2023-11-21T11:11:00;12.40;99.90
20658;DHT22;10488;50.846;4.078;2023-11-21T11:13:25;12.40;99.90
20658;DHT22;10488;50.846;4.078;2023-11-21T11:15:58;12.40;99.90
20658;DHT22;10488;50.846;4.078;2023-11-21T11:18:25;12.70;99.90
20658;DHT22;10488;50.846;4.078;2023-11-21T11:20:51;12.50;99.90
20658;DHT22;10488;50.846;4.078;2023-11-21T11:23:51;12.40;99.90
20658;DHT22;10488;50.846;4.078;2023-11-21T11:34:33;11.90;99.90
20658;DHT22;10488;50.846;4.078;2023-11-21T11:37:06;11.90;99.90
20658;DHT22;10488;50.846;4.078;2023-11-21T11:39:41;11.90;99.90
20658;DHT22;10488;50.846;4.078;2023-11-21T11:42:15;12.00;99.90
20658;DHT22;10488;50.846;4.078;2023-11-21T11:47:30;12.00;99.90
20658;DHT22;10488;50.846;4.078;2023-11-21T11:50:04;11.90;99.90
20658;DHT22;10488;50.846;4.078;2023-11-21T11:52:43;11.90;99.90
20658;DHT22;10488;50.846;4.078;2023-11-21T11:55:11;12.10;99.90
20658;DHT22;10488;50.846;4.078;2023-11-21T11:57:38;12.00;99.90
20658;DHT22;10488;50.846;4.078;2023-11-21T12:00:12;12.00;99.90
20658;DHT22;10488;50.846;4.078;2023-11-21T12:02:42;11.90;99.90
20658;DHT22;10488;50.846;4.078;2023-11-21T12:05:12;12.20;99.90
20658;DHT22;10488;50.846;4.078;2023-11-21T12:10:16;12.00;99.90
20658;DHT22;10488;50.846;4.078;2023-11-21T12:12:48;12.10;99.90
20658;DHT22;10488;50.846;4.078;2023-11-21T12:15:14;12.10;99.90
20658;DHT22;10488;50.846;4.078;2023-11-21T12:17:41;12.10;99.90
20658;DHT22;10488;50.846;4.078;2023-11-21T12:20:09;11.90;99.90
20658;DHT22;10488;50.846;4.078;2023-11-21T12:22:53;11.80;99.90
20658;DHT22;10488;50.846;4.078;2023-11-21T12:25:20;11.90;99.90
20658;DHT22;10488;50.846;4.078;2023-11-21T12:27:48;11.90;99.90
20658;DHT22;10488;50.846;4.078;2023-11-21T12:30:22;11.90;99.90
20658;DHT22;10488;50.846;4.078;2023-11-21T12:32:52;11.90;99.90
20658;DHT22;10488;50.846;4.078;2023-11-21T12:35:28;11.90;99.90
20658;DHT22;10488;50.846;4.078;2023-11-21T12:37:55;12.10;99.90
20658;DHT22;10488;50.846;4.078;2023-11-21T12:40:24;12.10;99.90
20658;DHT22;10488;50.846;4.078;2023-11-21T12:42:55;11.90;99.90
20658;DHT22;10488;50.846;4.078;2023-11-21T12:45:28;11.90;99.90
20658;DHT22;10488;50.846;4.078;2023-11-21T12:47:57;11.90;99.90
20658;DHT22;10488;50.846;4.078;2023-11-21T12:50:26;11.70;99.90
20658;DHT22;10488;50.846;4.078;2023-11-21T12:53:10;11.60;99.90
20658;DHT22;10488;50.846;4.078;2023-11-21T12:55:43;11.70;99.90
20658;DHT22;10488;50.846;4.078;2023-11-21T12:58:15;11.70;99.90
20658;DHT22;10488;50.846;4.078;2023-11-21T13:00:46;11.60;99.90
20658;DHT22;10488;50.846;4.078;2023-11-21T13:03:13;11.70;99.90
20658;DHT22;10488;50.846;4.078;2023-11-21T13:05:46;11.70;99.90
20658;DHT22;10488;50.846;4.078;2023-11-21T13:08:14;11.80;99.90
20658;DHT22;10488;50.846;4.078;2023-11-21T13:10:44;11.80;99.90
20658;DHT22;10488;50.846;4.078;2023-11-21T13:13:13;11.80;99.90
20658;DHT22;10488;50.846;4.078;2023-11-21T13:15:50;11.70;99.90
20658;DHT22;10488;50.846;4.078;2023-11-21T13:18:16;11.70;99.90
20658;DHT22;10488;50.846;4.078;2023-11-21T13:20:43;11.70;99.90
20658;DHT22;10488;50.846;4.078;2023-11-21T13:23:10;11.70;99.90
20658;DHT22;10488;50.846;4.078;2023-11-21T13:25:39;11.50;99.90
20658;DHT22;10488;50.846;4.078;2023-11-21T13:28:08;11.40;99.90
20658;DHT22;10488;50.846;4.078;2023-11-21T13:30:38;11.50;99.90
20658;DHT22;10488;50.846;4.078;2023-11-21T13:33:06;11.40;99.90
20658;DHT22;10488;50.846;4.078;2023-11-21T13:35:37;11.60;99.90
20658;DHT22;10488;50.846;4.078;2023-11-21T13:38:08;11.60;99.90
20658;DHT22;10488;50.846;4.078;2023-11-21T13:40:35;11.40;99.90
20658;DHT22;10488;50.846;4.078;2023-11-21T13:43:16;11.50;99.90
20658;DHT22;10488;50.846;4.078;2023-11-21T13:45:43;11.50;99.90
20658;DHT22;10488;50.846;4.078;2023-11-21T13:48:12;11.50;99.90
20658;DHT22;10488;50.846;4.078;2023-11-21T13:50:40;11.60;99.90
20658;DHT22;10488;50.846;4.078;2023-11-21T13:53:14;11.40;99.90
20658;DHT22;10488;50.846;4.078;2023-11-21T13:55:49;11.40;99.90
20658;DHT22;10488;50.846;4.078;2023-11-21T13:58:16;11.30;99.90
20658;DHT22;10488;50.846;4.078;2023-11-21T14:00:49;11.40;99.90
20658;DHT22;10488;50.846;4.078;2023-11-21T14:03:23;11.50;99.90
20658;DHT22;10488;50.846;4.078;2023-11-21T14:05:58;11.40;99.90
20658;DHT22;10488;50.846;4.078;2023-11-21T14:08:26;11.30;99.90
20658;DHT22;10488;50.846;4.078;2023-11-21T14:10:54;11.40;99.90
20658;DHT22;10488;50.846;4.078;2023-11-21T14:13:25;11.30;99.90
20658;DHT22;10488;50.846;4.078;2023-11-21T14:15:51;11.30;99.90
20658;DHT22;10488;50.846;4.078;2023-11-21T14:18:25;11.20;99.90
20658;DHT22;10488;50.846;4.078;2023-11-21T14:20:57;11.10;99.90
20658;DHT22;10488;50.846;4.078;2023-11-21T14:23:22;11.10;99.90
20658;DHT22;10488;50.846;4.078;2023-11-21T14:25:49;11.10;99.90
20658;DHT22;10488;50.846;4.078;2023-11-21T14:28:18;11.20;99.90
20658;DHT22;10488;50.846;4.078;2023-11-21T14:30:45;11.10;99.90
20658;DHT22;10488;50.846;4.078;2023-11-21T14:33:12;11.10;99.90
20658;DHT22;10488;50.846;4.078;2023-11-21T14:35:37;11.20;99.90
20658;DHT22;10488;50.846;4.078;2023-11-21T14:38:03;11.20;99.90
20658;DHT22;10488;50.846;4.078;2023-11-21T14:40:33;11.20;99.90
20658;DHT22;10488;50.846;4.078;2023-11-21T14:43:02;11.20;99.90
20658;DHT22;10488;50.846;4.078;2023-11-21T14:45:31;11.30;99.90
20658;DHT22;10488;50.846;4.078;2023-11-21T14:47:56;11.20;99.90
20658;DHT22;10488;50.846;4.078;2023-11-21T14:50:32;11.10;99.90
20658;DHT22;10488;50.846;4.078;2023-11-21T14:53:24;11.20;99.90
20658;DHT22;10488;50.846;4.078;2023-11-21T14:56:09;11.30;99.90
20658;DHT22;10488;50.846;4.078;2023-11-21T14:58:35;11.10;99.90
20658;DHT22;10488;50.846;4.078;2023-11-21T15:01:03;11.10;99.90
20658;DHT22;10488;50.846;4.078;2023-11-21T15:03:29;11.00;99.90
20658;DHT22;10488;50.846;4.078;2023-11-21T15:05:59;11.10;99.90
20658;DHT22;10488;50.846;4.078;2023-11-21T15:08:42;11.10;99.90
20658;DHT22;10488;50.846;4.078;2023-11-21T15:11:08;11.00;99.90
20658;DHT22;10488;50.846;4.078;2023-11-21T15:13:40;11.10;99.90
20658;DHT22;10488;50.846;4.078;2023-11-21T15:16:07;11.10;99.90
20658;DHT22;10488;50.846;4.078;2023-11-21T15:18:35;11.00;99.90
20658;DHT22;10488;50.846;4.078;2023-11-21T15:21:01;10.90;99.90
20658;DHT22;10488;50.846;4.078;2023-11-21T15:23:29;10.90;99.90
20658;DHT22;10488;50.846;4.078;2023-11-21T15:25:57;10.90;99.90
20658;DHT22;10488;50.846;4.078;2023-11-21T15:28:23;10.80;99.90
20658;DHT22;10488;50.846;4.078;2023-11-21T15:30:50;10.90;99.90
20658;DHT22;10488;50.846;4.078;2023-11-21T15:33:17;10.90;99.90
20658;DHT22;10488;50.846;4.078;2023-11-21T15:35:43;10.90;99.90
20658;DHT22;10488;50.846;4.078;2023-11-21T15:38:09;10.90;99.90
20658;DHT22;10488;50.846;4.078;2023-11-21T15:40:35;10.80;99.90
20658;DHT22;10488;50.846;4.078;2023-11-21T15:43:01;10.90;99.90
20658;DHT22;10488;50.846;4.078;2023-11-21T15:45:29;10.90;99.90
20658;DHT22;10488;50.846;4.078;2023-11-21T15:47:54;10.90;99.90
20658;DHT22;10488;50.846;4.078;2023-11-21T15:50:22;10.90;99.90